sensor_id;sensor_type;location;lat;lon;timestamp;pressure;altitude;pressure_sealevel;temperature;humidity
59055;BME280;44845;51.444;7.460;2023-04-03T00:00:51;101051.03;;;2.83;70.13
59055;BME280;44845;51.444;7.460;2023-04-03T00:03:17;101053.16;;;2.92;69.86
59055;BME280;44845;51.444;7.460;2023-04-03T00:05:43;101053.97;;;2.91;69.71
59055;BME280;44845;51.444;7.460;2023-04-03T00:08:09;101058.06;;;2.86;69.95
59055;BME280;44845;51.444;7.460;2023-04-03T00:10:35;101054.91;;;2.93;70.07
59055;BME280;44845;51.444;7.460;2023-04-03T00:13:02;101051.97;;;2.85;69.97
59055;BME280;44845;51.444;7.460;2023-04-03T00:15:27;101046.03;;;2.88;70.19
59055;BME280;44845;51.444;7.460;2023-04-03T00:17:53;101052.13;;;2.88;69.39
59055;BME280;44845;51.444;7.460;2023-04-03T00:20:18;101051.22;;;2.88;69.71
59055;BME280;44845;51.444;7.460;2023-04-03T00:22:43;101053.00;;;2.89;69.94
59055;BME280;44845;51.444;7.460;2023-04-03T00:25:09;101054.66;;;2.87;69.86
59055;BME280;44845;51.444;7.460;2023-04-03T00:27:39;101064.63;;;2.77;69.92
59055;BME280;44845;51.444;7.460;2023-04-03T00:30:06;101056.00;;;2.78;70.21
59055;BME280;44845;51.444;7.460;2023-04-03T00:32:32;101057.81;;;2.79;69.58
59055;BME280;44845;51.444;7.460;2023-04-03T00:34:57;101057.81;;;2.79;69.41
59055;BME280;44845;51.444;7.460;2023-04-03T00:37:23;101059.69;;;2.84;69.47
59055;BME280;44845;51.444;7.460;2023-04-03T00:39:48;101058.88;;;2.85;69.40
59055;BME280;44845;51.444;7.460;2023-04-03T00:42:13;101063.13;;;2.83;69.46
59055;BME280;44845;51.444;7.460;2023-04-03T00:47:07;101057.41;;;2.70;70.05
59055;BME280;44845;51.444;7.460;2023-04-03T00:49:34;101061.09;;;2.75;70.23
59055;BME280;44845;51.444;7.460;2023-04-03T00:52:00;101063.88;;;2.80;70.15
59055;BME280;44845;51.444;7.460;2023-04-03T00:54:26;101062.09;;;2.79;70.31
59055;BME280;44845;51.444;7.460;2023-04-03T00:56:52;101064.47;;;2.74;70.50
59055;BME280;44845;51.444;7.460;2023-04-03T00:59:21;101070.75;;;2.79;70.56
59055;BME280;44845;51.444;7.460;2023-04-03T01:01:52;101067.22;;;2.77;70.64
59055;BME280;44845;51.444;7.460;2023-04-03T01:04:31;101070.56;;;2.75;70.62
59055;BME280;44845;51.444;7.460;2023-04-03T01:07:04;101070.97;;;2.84;70.44
59055;BME280;44845;51.444;7.460;2023-04-03T01:09:31;101069.81;;;2.77;70.38
59055;BME280;44845;51.444;7.460;2023-04-03T01:12:20;101065.44;;;2.76;70.72
59055;BME280;44845;51.444;7.460;2023-04-03T01:14:48;101064.34;;;2.71;70.00
59055;BME280;44845;51.444;7.460;2023-04-03T01:25:41;101071.22;;;2.70;70.36
59055;BME280;44845;51.444;7.460;2023-04-03T01:28:20;101070.47;;;2.73;70.16
59055;BME280;44845;51.444;7.460;2023-04-03T01:30:56;101075.78;;;2.76;69.97
59055;BME280;44845;51.444;7.460;2023-04-03T01:33:24;101068.03;;;2.76;70.33
59055;BME280;44845;51.444;7.460;2023-04-03T01:35:49;101068.03;;;2.76;69.16
59055;BME280;44845;51.444;7.460;2023-04-03T01:38:15;101078.34;;;2.75;67.53
59055;BME280;44845;51.444;7.460;2023-04-03T01:40:41;101072.78;;;2.87;67.41
59055;BME280;44845;51.444;7.460;2023-04-03T01:43:06;101069.91;;;3.00;68.67
59055;BME280;44845;51.444;7.460;2023-04-03T01:45:31;101065.16;;;2.90;65.46
59055;BME280;44845;51.444;7.460;2023-04-03T01:47:57;101066.38;;;2.78;66.19
59055;BME280;44845;51.444;7.460;2023-04-03T01:50:22;101065.72;;;2.63;66.29
59055;BME280;44845;51.444;7.460;2023-04-03T01:52:49;101066.78;;;2.88;67.26
59055;BME280;44845;51.444;7.460;2023-04-03T01:55:14;101064.28;;;2.89;66.14
59055;BME280;44845;51.444;7.460;2023-04-03T01:57:40;101072.63;;;3.03;66.66
59055;BME280;44845;51.444;7.460;2023-04-03T02:00:06;101066.66;;;3.04;65.68
59055;BME280;44845;51.444;7.460;2023-04-03T02:02:32;101068.19;;;3.01;64.76
59055;BME280;44845;51.444;7.460;2023-04-03T02:04:58;101070.34;;;2.90;64.83
59055;BME280;44845;51.444;7.460;2023-04-03T02:07:23;101071.81;;;3.04;65.59
59055;BME280;44845;51.444;7.460;2023-04-03T02:09:49;101079.81;;;2.89;64.58
59055;BME280;44845;51.444;7.460;2023-04-03T02:12:14;101074.84;;;2.74;64.34
59055;BME280;44845;51.444;7.460;2023-04-03T02:14:39;101067.13;;;2.76;64.59
59055;BME280;44845;51.444;7.460;2023-04-03T02:17:05;101083.69;;;2.99;65.48
59055;BME280;44845;51.444;7.460;2023-04-03T02:19:34;101080.03;;;2.74;64.73
59055;BME280;44845;51.444;7.460;2023-04-03T02:22:00;101087.00;;;2.75;65.02
59055;BME280;44845;51.444;7.460;2023-04-03T02:24:25;101089.44;;;2.72;64.47
59055;BME280;44845;51.444;7.460;2023-04-03T02:26:51;101090.78;;;2.44;65.27
59055;BME280;44845;51.444;7.460;2023-04-03T02:29:16;101095.03;;;2.81;65.79
59055;BME280;44845;51.444;7.460;2023-04-03T02:31:41;101088.75;;;2.76;64.71
59055;BME280;44845;51.444;7.460;2023-04-03T02:34:07;101099.25;;;2.79;64.55
59055;BME280;44845;51.444;7.460;2023-04-03T02:36:32;101094.31;;;3.06;64.71
59055;BME280;44845;51.444;7.460;2023-04-03T02:38:57;101094.47;;;3.09;64.24
59055;BME280;44845;51.444;7.460;2023-04-03T02:41:23;101097.75;;;2.65;64.46
59055;BME280;44845;51.444;7.460;2023-04-03T02:43:50;101101.34;;;2.88;64.13
59055;BME280;44845;51.444;7.460;2023-04-03T02:46:15;101100.44;;;3.08;65.03
59055;BME280;44845;51.444;7.460;2023-04-03T02:48:41;101099.84;;;3.13;64.98
59055;BME280;44845;51.444;7.460;2023-04-03T02:51:06;101105.63;;;3.08;63.98
59055;BME280;44845;51.444;7.460;2023-04-03T02:53:32;101103.59;;;3.00;64.38
59055;BME280;44845;51.444;7.460;2023-04-03T02:55:57;101105.06;;;3.15;64.21
59055;BME280;44845;51.444;7.460;2023-04-03T02:58:22;101104.50;;;2.81;64.39
59055;BME280;44845;51.444;7.460;2023-04-03T03:00:47;101108.31;;;2.89;64.28
59055;BME280;44845;51.444;7.460;2023-04-03T03:03:13;101107.44;;;2.69;64.98
59055;BME280;44845;51.444;7.460;2023-04-03T03:05:39;101099.25;;;2.59;64.97
59055;BME280;44845;51.444;7.460;2023-04-03T03:08:05;101102.31;;;2.70;64.82
59055;BME280;44845;51.444;7.460;2023-04-03T03:10:30;101099.59;;;2.67;65.14
59055;BME280;44845;51.444;7.460;2023-04-03T03:12:56;101104.16;;;2.73;65.57
59055;BME280;44845;51.444;7.460;2023-04-03T03:15:21;101098.56;;;2.84;64.77
59055;BME280;44845;51.444;7.460;2023-04-03T03:17:46;101097.88;;;2.48;64.89
59055;BME280;44845;51.444;7.460;2023-04-03T03:20:12;101101.00;;;2.61;65.47
59055;BME280;44845;51.444;7.460;2023-04-03T03:22:40;101099.78;;;2.52;64.46
59055;BME280;44845;51.444;7.460;2023-04-03T03:25:05;101103.06;;;2.48;65.50
59055;BME280;44845;51.444;7.460;2023-04-03T03:27:31;101107.69;;;2.35;65.50
59055;BME280;44845;51.444;7.460;2023-04-03T03:29:56;101100.88;;;2.57;65.87
59055;BME280;44845;51.444;7.460;2023-04-03T03:32:21;101099.25;;;2.59;65.22
59055;BME280;44845;51.444;7.460;2023-04-03T03:34:47;101103.59;;;2.61;65.29
59055;BME280;44845;51.444;7.460;2023-04-03T03:37:12;101107.84;;;2.78;65.44
59055;BME280;44845;51.444;7.460;2023-04-03T03:39:37;101102.00;;;2.83;64.90
59055;BME280;44845;51.444;7.460;2023-04-03T03:42:03;101100.59;;;2.71;64.53
59055;BME280;44845;51.444;7.460;2023-04-03T03:44:28;101104.81;;;2.49;64.71
59055;BME280;44845;51.444;7.460;2023-04-03T03:46:54;101105.88;;;2.53;64.79
59055;BME280;44845;51.444;7.460;2023-04-03T03:49:20;101100.81;;;2.56;64.84
59055;BME280;44845;51.444;7.460;2023-04-03T03:51:45;101105.34;;;2.42;65.23
59055;BME280;44845;51.444;7.460;2023-04-03T03:54:12;101104.56;;;2.43;65.75
59055;BME280;44845;51.444;7.460;2023-04-03T03:56:37;101103.34;;;2.54;66.07
59055;BME280;44845;51.444;7.460;2023-04-03T03:59:03;101107.78;;;2.57;67.11
59055;BME280;44845;51.444;7.460;2023-04-03T04:01:28;101105.44;;;2.63;66.15
59055;BME280;44845;51.444;7.460;2023-04-03T04:03:54;101104.81;;;2.49;66.10
59055;BME280;44845;51.444;7.460;2023-04-03T04:06:20;101117.22;;;2.56;66.29
59055;BME280;44845;51.444;7.460;2023-04-03T04:08:46;101114.28;;;2.48;64.93
59055;BME280;44845;51.444;7.460;2023-04-03T04:11:11;101117.44;;;2.61;66.04
59055;BME280;44845;51.444;7.460;2023-04-03T04:13:37;101119.69;;;2.53;66.28
59055;BME280;44845;51.444;7.460;2023-04-03T04:16:02;101117.72;;;2.29;65.62
59055;BME280;44845;51.444;7.460;2023-04-03T04:18:28;101112.44;;;2.46;65.88
59055;BME280;44845;51.444;7.460;2023-04-03T04:20:53;101111.84;;;2.52;66.06
59055;BME280;44845;51.444;7.460;2023-04-03T04:23:18;101114.50;;;2.53;65.96
59055;BME280;44845;51.444;7.460;2023-04-03T04:25:45;101117.88;;;2.32;65.30
59055;BME280;44845;51.444;7.460;2023-04-03T04:28:11;101119.25;;;2.44;65.66
59055;BME280;44845;51.444;7.460;2023-04-03T04:30:36;101118.16;;;2.39;65.39
59055;BME280;44845;51.444;7.460;2023-04-03T04:33:02;101118.59;;;2.48;66.60
59055;BME280;44845;51.444;7.460;2023-04-03T04:35:27;101124.06;;;2.54;65.96
59055;BME280;44845;51.444;7.460;2023-04-03T04:37:53;101120.09;;;2.43;66.00
59055;BME280;44845;51.444;7.460;2023-04-03T04:40:18;101121.84;;;2.44;66.70
59055;BME280;44845;51.444;7.460;2023-04-03T04:42:43;101129.50;;;2.41;67.00
59055;BME280;44845;51.444;7.460;2023-04-03T04:45:09;101128.50;;;2.39;65.93
59055;BME280;44845;51.444;7.460;2023-04-03T04:47:35;101129.19;;;2.34;67.42
59055;BME280;44845;51.444;7.460;2023-04-03T04:50:00;101136.56;;;1.88;67.12
59055;BME280;44845;51.444;7.460;2023-04-03T04:52:26;101150.38;;;2.07;67.40
59055;BME280;44845;51.444;7.460;2023-04-03T04:54:51;101148.16;;;1.97;67.01
59055;BME280;44845;51.444;7.460;2023-04-03T04:57:16;101147.19;;;2.13;67.02
59055;BME280;44845;51.444;7.460;2023-04-03T04:59:42;101156.13;;;2.20;66.95
59055;BME280;44845;51.444;7.460;2023-04-03T05:02:07;101151.91;;;2.22;66.89
59055;BME280;44845;51.444;7.460;2023-04-03T05:04:33;101152.75;;;2.21;66.71
59055;BME280;44845;51.444;7.460;2023-04-03T05:06:58;101154.16;;;1.96;67.13
59055;BME280;44845;51.444;7.460;2023-04-03T05:09:24;101154.75;;;2.08;66.92
59055;BME280;44845;51.444;7.460;2023-04-03T05:11:50;101156.06;;;2.00;66.59
59055;BME280;44845;51.444;7.460;2023-04-03T05:14:15;101161.56;;;2.06;66.49
59055;BME280;44845;51.444;7.460;2023-04-03T05:16:40;101162.50;;;1.72;67.22
59055;BME280;44845;51.444;7.460;2023-04-03T05:19:06;101165.19;;;1.91;66.97
59055;BME280;44845;51.444;7.460;2023-04-03T05:21:31;101164.78;;;2.02;68.03
59055;BME280;44845;51.444;7.460;2023-04-03T05:23:58;101177.00;;;1.86;67.30
59055;BME280;44845;51.444;7.460;2023-04-03T05:26:25;101178.66;;;1.67;68.08
59055;BME280;44845;51.444;7.460;2023-04-03T05:28:51;101181.22;;;1.84;67.63
59055;BME280;44845;51.444;7.460;2023-04-03T05:31:17;101183.28;;;1.91;68.13
59055;BME280;44845;51.444;7.460;2023-04-03T05:33:42;101179.69;;;2.06;67.33
59055;BME280;44845;51.444;7.460;2023-04-03T05:36:08;101185.78;;;1.72;68.01
59055;BME280;44845;51.444;7.460;2023-04-03T05:38:33;101189.09;;;1.87;67.65
59055;BME280;44845;51.444;7.460;2023-04-03T05:40:59;101194.31;;;1.71;67.76
59055;BME280;44845;51.444;7.460;2023-04-03T05:43:24;101199.03;;;1.61;67.82
59055;BME280;44845;51.444;7.460;2023-04-03T05:45:51;101204.25;;;1.44;68.56
59055;BME280;44845;51.444;7.460;2023-04-03T05:48:16;101204.69;;;1.71;68.08
59055;BME280;44845;51.444;7.460;2023-04-03T05:50:42;101205.38;;;1.50;68.03
59055;BME280;44845;51.444;7.460;2023-04-03T05:53:25;101211.91;;;1.43;68.59
59055;BME280;44845;51.444;7.460;2023-04-03T05:55:52;101213.59;;;1.26;68.82
59055;BME280;44845;51.444;7.460;2023-04-03T05:58:17;101215.06;;;1.04;70.06
59055;BME280;44845;51.444;7.460;2023-04-03T06:00:42;101221.47;;;1.10;71.15
59055;BME280;44845;51.444;7.460;2023-04-03T06:03:08;101218.06;;;1.45;69.87
59055;BME280;44845;51.444;7.460;2023-04-03T06:05:33;101222.50;;;1.14;70.06
59055;BME280;44845;51.444;7.460;2023-04-03T06:08:00;101221.94;;;1.20;70.07
59055;BME280;44845;51.444;7.460;2023-04-03T06:10:25;101219.78;;;1.28;69.65
59055;BME280;44845;51.444;7.460;2023-04-03T06:12:51;101216.53;;;1.32;69.33
59055;BME280;44845;51.444;7.460;2023-04-03T06:15:16;101226.22;;;1.36;68.79
59055;BME280;44845;51.444;7.460;2023-04-03T06:17:42;101233.19;;;1.20;68.94
59055;BME280;44845;51.444;7.460;2023-04-03T06:20:08;101231.09;;;1.13;69.35
59055;BME280;44845;51.444;7.460;2023-04-03T06:22:34;101236.56;;;1.19;69.15
59055;BME280;44845;51.444;7.460;2023-04-03T06:25:00;101232.34;;;0.88;69.56
59055;BME280;44845;51.444;7.460;2023-04-03T06:27:27;101233.84;;;0.84;69.74
59055;BME280;44845;51.444;7.460;2023-04-03T06:29:52;101227.00;;;0.85;70.19
59055;BME280;44845;51.444;7.460;2023-04-03T06:32:17;101230.44;;;0.69;70.17
59055;BME280;44845;51.444;7.460;2023-04-03T06:34:43;101229.13;;;1.09;69.64
59055;BME280;44845;51.444;7.460;2023-04-03T06:37:16;101233.56;;;1.11;69.74
59055;BME280;44845;51.444;7.460;2023-04-03T06:39:42;101230.75;;;1.07;69.03
59055;BME280;44845;51.444;7.460;2023-04-03T06:42:08;101226.47;;;1.07;69.64
59055;BME280;44845;51.444;7.460;2023-04-03T06:44:33;101231.69;;;0.92;69.19
59055;BME280;44845;51.444;7.460;2023-04-03T06:47:00;101236.13;;;0.95;69.37
59055;BME280;44845;51.444;7.460;2023-04-03T06:49:25;101234.53;;;0.97;69.24
59055;BME280;44845;51.444;7.460;2023-04-03T06:51:51;101226.56;;;0.77;69.37
59055;BME280;44845;51.444;7.460;2023-04-03T06:54:17;101235.25;;;0.94;69.63
59055;BME280;44845;51.444;7.460;2023-04-03T06:56:42;101236.25;;;1.13;68.71
59055;BME280;44845;51.444;7.460;2023-04-03T06:59:09;101230.19;;;1.12;68.20
59055;BME280;44845;51.444;7.460;2023-04-03T07:01:35;101235.44;;;1.14;68.48
59055;BME280;44845;51.444;7.460;2023-04-03T07:04:00;101235.91;;;1.07;68.32
59055;BME280;44845;51.444;7.460;2023-04-03T07:06:26;101233.66;;;1.30;68.42
59055;BME280;44845;51.444;7.460;2023-04-03T07:08:54;101236.16;;;1.45;68.04
59055;BME280;44845;51.444;7.460;2023-04-03T07:11:19;101242.56;;;1.35;67.87
59055;BME280;44845;51.444;7.460;2023-04-03T07:13:45;101247.31;;;1.44;67.89
59055;BME280;44845;51.444;7.460;2023-04-03T07:16:11;101254.16;;;1.27;67.98
59055;BME280;44845;51.444;7.460;2023-04-03T07:18:36;101250.13;;;1.49;67.70
59055;BME280;44845;51.444;7.460;2023-04-03T07:21:02;101251.78;;;1.65;67.14
59055;BME280;44845;51.444;7.460;2023-04-03T07:23:28;101253.94;;;1.39;67.76
59055;BME280;44845;51.444;7.460;2023-04-03T07:25:54;101250.94;;;1.31;67.39
59055;BME280;44845;51.444;7.460;2023-04-03T07:28:20;101259.50;;;1.30;68.17
59055;BME280;44845;51.444;7.460;2023-04-03T07:30:51;101263.53;;;1.41;67.66
59055;BME280;44845;51.444;7.460;2023-04-03T07:33:18;101263.53;;;1.25;67.42
59055;BME280;44845;51.444;7.460;2023-04-03T07:35:44;101263.38;;;1.38;67.96
59055;BME280;44845;51.444;7.460;2023-04-03T07:38:10;101272.84;;;1.38;67.19
59055;BME280;44845;51.444;7.460;2023-04-03T07:40:36;101269.84;;;1.30;66.98
59055;BME280;44845;51.444;7.460;2023-04-03T07:43:01;101269.50;;;1.23;68.57
59055;BME280;44845;51.444;7.460;2023-04-03T07:45:28;101272.50;;;1.31;67.99
59055;BME280;44845;51.444;7.460;2023-04-03T07:47:53;101275.81;;;1.45;67.80
59055;BME280;44845;51.444;7.460;2023-04-03T07:50:19;101272.25;;;1.77;67.54
59055;BME280;44845;51.444;7.460;2023-04-03T07:52:45;101278.03;;;1.89;66.20
59055;BME280;44845;51.444;7.460;2023-04-03T07:55:11;101274.97;;;1.80;65.42
59055;BME280;44845;51.444;7.460;2023-04-03T07:57:36;101272.06;;;1.90;65.97
59055;BME280;44845;51.444;7.460;2023-04-03T08:00:03;101269.28;;;1.69;65.49
59055;BME280;44845;51.444;7.460;2023-04-03T08:02:29;101272.25;;;1.77;66.23
59055;BME280;44845;51.444;7.460;2023-04-03T08:04:57;101277.66;;;1.65;66.57
59055;BME280;44845;51.444;7.460;2023-04-03T08:07:22;101281.13;;;1.82;65.86
59055;BME280;44845;51.444;7.460;2023-04-03T08:09:48;101275.22;;;1.85;65.83
59055;BME280;44845;51.444;7.460;2023-04-03T08:12:13;101278.03;;;1.89;65.37
59055;BME280;44845;51.444;7.460;2023-04-03T08:14:39;101285.47;;;2.00;65.53
59055;BME280;44845;51.444;7.460;2023-04-03T08:17:05;101283.38;;;1.93;65.37
59055;BME280;44845;51.444;7.460;2023-04-03T08:19:34;101275.28;;;2.21;64.64
59055;BME280;44845;51.444;7.460;2023-04-03T08:22:00;101280.91;;;2.12;63.35
59055;BME280;44845;51.444;7.460;2023-04-03T08:24:28;101286.88;;;2.11;63.95
59055;BME280;44845;51.444;7.460;2023-04-03T08:26:54;101279.13;;;2.11;63.17
59055;BME280;44845;51.444;7.460;2023-04-03T08:29:19;101285.91;;;2.09;62.96
59055;BME280;44845;51.444;7.460;2023-04-03T08:31:46;101286.69;;;2.25;62.97
59055;BME280;44845;51.444;7.460;2023-04-03T08:34:11;101289.97;;;2.21;62.69
59055;BME280;44845;51.444;7.460;2023-04-03T08:36:38;101290.56;;;2.33;62.61
59055;BME280;44845;51.444;7.460;2023-04-03T08:39:04;101285.50;;;2.36;63.15
59055;BME280;44845;51.444;7.460;2023-04-03T08:41:33;101275.16;;;2.36;62.41
59055;BME280;44845;51.444;7.460;2023-04-03T08:44:39;101292.09;;;2.30;61.70
59055;BME280;44845;51.444;7.460;2023-04-03T08:49:42;101287.72;;;2.29;61.90
59055;BME280;44845;51.444;7.460;2023-04-03T08:52:22;101285.38;;;2.33;61.42
59055;BME280;44845;51.444;7.460;2023-04-03T08:55:01;101297.81;;;2.41;61.83
59055;BME280;44845;51.444;7.460;2023-04-03T08:57:38;101292.03;;;2.46;62.28
59055;BME280;44845;51.444;7.460;2023-04-03T09:00:18;101292.63;;;2.59;61.81
59055;BME280;44845;51.444;7.460;2023-04-03T09:02:51;101286.19;;;2.69;61.08
59055;BME280;44845;51.444;7.460;2023-04-03T09:05:41;101285.34;;;2.88;59.72
59055;BME280;44845;51.444;7.460;2023-04-03T09:10:38;101284.09;;;2.98;56.91
59055;BME280;44845;51.444;7.460;2023-04-03T09:15:44;101285.66;;;2.95;55.91
59055;BME280;44845;51.444;7.460;2023-04-03T09:18:20;101276.13;;;3.13;55.67
59055;BME280;44845;51.444;7.460;2023-04-03T09:23:39;101282.75;;;3.07;54.10
59055;BME280;44845;51.444;7.460;2023-04-03T09:26:17;101277.16;;;3.17;54.50
59055;BME280;44845;51.444;7.460;2023-04-03T09:28:45;101276.63;;;3.44;55.26
59055;BME280;44845;51.444;7.460;2023-04-03T09:31:26;101278.41;;;3.45;54.69
59055;BME280;44845;51.444;7.460;2023-04-03T09:36:51;101283.75;;;3.48;54.41
59055;BME280;44845;51.444;7.460;2023-04-03T09:39:19;101279.50;;;3.70;54.24
59055;BME280;44845;51.444;7.460;2023-04-03T09:44:29;101272.81;;;3.56;51.85
59055;BME280;44845;51.444;7.460;2023-04-03T09:46:57;101279.34;;;3.67;52.98
59055;BME280;44845;51.444;7.460;2023-04-03T09:49:22;101267.84;;;3.82;54.80
59055;BME280;44845;51.444;7.460;2023-04-03T09:51:48;101268.44;;;3.96;53.46
59055;BME280;44845;51.444;7.460;2023-04-03T09:54:34;101270.41;;;4.02;52.78
59055;BME280;44845;51.444;7.460;2023-04-03T09:57:32;101252.81;;;3.94;51.42
59055;BME280;44845;51.444;7.460;2023-04-03T09:59:57;101258.25;;;4.01;53.25
59055;BME280;44845;51.444;7.460;2023-04-03T10:02:40;101258.63;;;3.89;52.53
59055;BME280;44845;51.444;7.460;2023-04-03T10:05:27;101251.66;;;3.88;51.93
59055;BME280;44845;51.444;7.460;2023-04-03T10:08:11;101250.06;;;3.91;51.41
59055;BME280;44845;51.444;7.460;2023-04-03T10:10:45;101248.63;;;3.98;51.56
59055;BME280;44845;51.444;7.460;2023-04-03T10:15:56;101245.34;;;4.02;52.04
59055;BME280;44845;51.444;7.460;2023-04-03T10:21:39;101246.72;;;4.15;52.15
59055;BME280;44845;51.444;7.460;2023-04-03T10:29:39;101243.28;;;4.38;48.86
59055;BME280;44845;51.444;7.460;2023-04-03T10:34:44;101237.69;;;4.27;47.63
59055;BME280;44845;51.444;7.460;2023-04-03T10:37:23;101244.03;;;4.35;47.80
59055;BME280;44845;51.444;7.460;2023-04-03T10:45:21;101231.38;;;4.43;43.15
59055;BME280;44845;51.444;7.460;2023-04-03T10:48:06;101236.81;;;4.49;44.36
59055;BME280;44845;51.444;7.460;2023-04-03T10:50:38;101246.19;;;4.46;43.48
59055;BME280;44845;51.444;7.460;2023-04-03T10:56:06;101221.09;;;4.46;44.16
59055;BME280;44845;51.444;7.460;2023-04-03T10:58:44;101228.91;;;4.46;42.96
59055;BME280;44845;51.444;7.460;2023-04-03T11:01:20;101222.22;;;4.53;42.69
59055;BME280;44845;51.444;7.460;2023-04-03T11:03:53;101221.66;;;4.60;42.71
59055;BME280;44845;51.444;7.460;2023-04-03T11:06:22;101223.53;;;4.65;42.43
59055;BME280;44845;51.444;7.460;2023-04-03T11:08:57;101214.88;;;4.64;42.07
59055;BME280;44845;51.444;7.460;2023-04-03T11:11:27;101216.88;;;4.71;43.61
59055;BME280;44845;51.444;7.460;2023-04-03T11:13:58;101213.38;;;4.71;43.10
59055;BME280;44845;51.444;7.460;2023-04-03T11:16:28;101209.06;;;4.71;42.78
59055;BME280;44845;51.444;7.460;2023-04-03T11:21:34;101208.41;;;4.77;43.92
59055;BME280;44845;51.444;7.460;2023-04-03T11:24:05;101201.78;;;4.86;42.66
59055;BME280;44845;51.444;7.460;2023-04-03T11:26:38;101201.50;;;4.78;42.32
59055;BME280;44845;51.444;7.460;2023-04-03T11:29:09;101196.19;;;4.75;41.81
59055;BME280;44845;51.444;7.460;2023-04-03T11:34:19;101191.56;;;4.90;41.58
59055;BME280;44845;51.444;7.460;2023-04-03T11:36:50;101188.91;;;4.89;42.96
59055;BME280;44845;51.444;7.460;2023-04-03T11:39:36;101181.16;;;4.90;43.53
59055;BME280;44845;51.444;7.460;2023-04-03T11:51:01;101175.19;;;4.93;43.05
59055;BME280;44845;51.444;7.460;2023-04-03T11:53:35;101178.72;;;4.95;42.90
59055;BME280;44845;51.444;7.460;2023-04-03T11:56:26;101163.28;;;5.00;43.76
59055;BME280;44845;51.444;7.460;2023-04-03T12:01:53;101165.13;;;5.02;44.72
59055;BME280;44845;51.444;7.460;2023-04-03T12:04:21;101169.00;;;5.14;45.76
59055;BME280;44845;51.444;7.460;2023-04-03T12:09:27;101172.44;;;5.13;43.25
59055;BME280;44845;51.444;7.460;2023-04-03T12:11:55;101167.78;;;5.04;44.17
59055;BME280;44845;51.444;7.460;2023-04-03T12:14:23;101168.66;;;5.04;44.56
59055;BME280;44845;51.444;7.460;2023-04-03T12:16:52;101166.63;;;5.20;44.91
59055;BME280;44845;51.444;7.460;2023-04-03T12:19:32;101171.72;;;5.17;44.29
59055;BME280;44845;51.444;7.460;2023-04-03T12:24:34;101169.44;;;5.26;43.66
59055;BME280;44845;51.444;7.460;2023-04-03T12:34:53;101149.81;;;5.36;43.30
59055;BME280;44845;51.444;7.460;2023-04-03T12:45:24;101139.34;;;5.33;43.65
59055;BME280;44845;51.444;7.460;2023-04-03T12:47:55;101138.63;;;5.39;44.67
59055;BME280;44845;51.444;7.460;2023-04-03T12:53:24;101128.34;;;5.42;42.82
59055;BME280;44845;51.444;7.460;2023-04-03T12:55:57;101128.34;;;5.42;43.18
59055;BME280;44845;51.444;7.460;2023-04-03T12:58:43;101128.06;;;5.34;42.90
59055;BME280;44845;51.444;7.460;2023-04-03T13:01:17;101128.47;;;5.45;44.03
59055;BME280;44845;51.444;7.460;2023-04-03T13:04:03;101134.13;;;5.33;43.94
59055;BME280;44845;51.444;7.460;2023-04-03T13:06:48;101120.59;;;5.44;44.13
59055;BME280;44845;51.444;7.460;2023-04-03T13:11:48;101122.41;;;5.46;43.50
59055;BME280;44845;51.444;7.460;2023-04-03T13:14:18;101119.03;;;5.49;44.02
59055;BME280;44845;51.444;7.460;2023-04-03T13:17:10;101117.28;;;5.48;43.31
59055;BME280;44845;51.444;7.460;2023-04-03T13:19:38;101110.09;;;5.40;43.58
59055;BME280;44845;51.444;7.460;2023-04-03T13:22:50;101113.72;;;5.46;43.94
59055;BME280;44845;51.444;7.460;2023-04-03T13:24:58;101114.81;;;5.52;45.13
59055;BME280;44845;51.444;7.460;2023-04-03T13:27:26;101117.50;;;5.56;44.76
59055;BME280;44845;51.444;7.460;2023-04-03T13:29:54;101109.06;;;5.63;44.52
59055;BME280;44845;51.444;7.460;2023-04-03T13:32:24;101114.13;;;5.58;43.76
59055;BME280;44845;51.444;7.460;2023-04-03T13:34:51;101111.06;;;5.44;43.25
59055;BME280;44845;51.444;7.460;2023-04-03T13:37:28;101110.16;;;5.44;42.82
59055;BME280;44845;51.444;7.460;2023-04-03T13:39:59;101108.47;;;5.44;42.70
59055;BME280;44845;51.444;7.460;2023-04-03T13:42:28;101110.53;;;5.55;43.23
59055;BME280;44845;51.444;7.460;2023-04-03T13:45:24;101097.09;;;5.68;43.23
59055;BME280;44845;51.444;7.460;2023-04-03T13:47:52;101092.91;;;5.73;43.94
59055;BME280;44845;51.444;7.460;2023-04-03T13:50:25;101099.56;;;5.91;43.57
59055;BME280;44845;51.444;7.460;2023-04-03T13:53:11;101099.69;;;5.96;43.61
59055;BME280;44845;51.444;7.460;2023-04-03T13:55:53;101095.56;;;6.61;64.79
59055;BME280;44845;51.444;7.460;2023-04-03T13:58:26;101085.53;;;6.15;41.86
59055;BME280;44845;51.444;7.460;2023-04-03T14:01:19;101080.34;;;5.88;42.14
59055;BME280;44845;51.444;7.460;2023-04-03T14:03:58;101091.34;;;5.79;43.01
59055;BME280;44845;51.444;7.460;2023-04-03T14:06:25;101077.28;;;5.73;43.44
59055;BME280;44845;51.444;7.460;2023-04-03T14:08:51;101078.16;;;5.72;43.45
59055;BME280;44845;51.444;7.460;2023-04-03T14:11:19;101079.38;;;5.84;43.47
59055;BME280;44845;51.444;7.460;2023-04-03T14:13:48;101080.25;;;5.84;42.79
59055;BME280;44845;51.444;7.460;2023-04-03T14:16:27;101068.84;;;5.81;42.73
59055;BME280;44845;51.444;7.460;2023-04-03T14:18:52;101070.34;;;5.72;43.47
59055;BME280;44845;51.444;7.460;2023-04-03T14:21:19;101066.84;;;5.72;42.85
59055;BME280;44845;51.444;7.460;2023-04-03T14:23:45;101067.78;;;5.74;43.42
59055;BME280;44845;51.444;7.460;2023-04-03T14:26:17;101062.75;;;5.80;42.96
59055;BME280;44845;51.444;7.460;2023-04-03T14:28:48;101062.06;;;5.86;43.70
59055;BME280;44845;51.444;7.460;2023-04-03T14:31:15;101054.50;;;5.94;44.00
59055;BME280;44845;51.444;7.460;2023-04-03T14:33:41;101059.84;;;5.99;44.10
59055;BME280;44845;51.444;7.460;2023-04-03T14:36:28;101063.84;;;5.87;42.83
59055;BME280;44845;51.444;7.460;2023-04-03T14:38:55;101053.34;;;5.84;43.55
59055;BME280;44845;51.444;7.460;2023-04-03T14:41:23;101057.19;;;5.68;42.78